Pagina principale
METAR-TAF:

METAR-TAF

Aeroporti :

Aeroporto di Cervia-Pisignano

Cervia, Italia

latitudine: 44-13N, longitudine: 012-18E, altezza: 6 m

Osservazione

Il bollettino è stato emesso 36 minuti fa, alle 10:55 UTC
Vento 8 kt da ovest
Temperature 2°C
Umidità 75%
Pressione 1037 hPa
Visibilità 10 km o più
Poco nuvoloso ad un'altezza di 4000 ft
Nuvoloso ad un'altezza di 5000 ft

METAR: LIPC 091055Z 27008KT 9999 FEW040 BKN050 02/M02 Q1037 RMK BKN VIS MIN 9999 WIND THR11 26006KT WIND THR29 27008KT BLU

Ora: 12:31 (11:31 UTC)

Previsione

Il bollettino è stato emesso 3 ore e 31 minuti fa, alle 08:00 UTC
Previsione valida dal 09 alle 09 UTC al 09 alle 18 UTC
Vento 10 kt da ovest
Visibilità 10 km o più
Nuvoloso ad un'altezza di 3000 ft
Nubi sparse ad un'altezza di 4000 ft

TAF: LIPC 090800Z 0909/0918 28010KT 9999 BKN030 SCT040

Osservazioni e previsioni meteorologiche di più di 4000 aeroporti (messaggi METAR e TAF).

Le stazioni disponibili sono rappresentate dai dischi gialli e rossi sulla carta.

Puntare il mouse per vedere il nome della stazione.

Clicca sopra per visualizzare le osservazioni e previsioni meteorologiche.

Per cambiare la mappa : fare clic sui pulsanti verdi con una croce nera per ingrandire, il pulsante verde con un trattino per diminuire, o sulla freccia verde per le mappe adiacenti.


METAR-TAF: